Time;durP1;ratioP1;P1;durP2;ratioP2;P2;SDS_P1;SDS_P2;PMS_P1;PMS_P2;Temp;Humidity;BMP_temperature;BMP_pressure;BME280_temperature;BME280_humidity;BME280_pressure;Samples;Min_cycle;Max_cycle;Signal;HPM_P1;HPM_P2
2022/01/23 00:00:45;;;;;;;;;;;;;;;17.68;59.08;101400.25;5026686;28;1719;-34
2022/01/23 00:03:17;;;;;;;;;;;;;;;17.70;58.79;101403.66;5025508;28;1675;-33
2022/01/23 00:05:44;;;;;;;;;;;;;;;17.69;59.20;101393.97;5028524;28;1484;-34
2022/01/23 00:08:14;;;;;;;;;;;;;;;17.68;58.84;101394.91;5029741;28;1906;-34
2022/01/23 00:10:41;;;;;;;;;;;;;;;17.69;58.69;101391.28;5026066;28;1063;-33
2022/01/23 00:13:12;;;;;;;;;;;;;;;17.74;58.71;101409.66;5026992;28;1717;-33
2022/01/23 00:18:22;;;;;;;;;;;;;;;18.04;58.13;101418.13;5025421;28;1734;-33
2022/01/23 00:20:49;;;;;;;;;;;;;;;18.01;58.57;101422.88;5028479;28;1930;-33
2022/01/23 00:23:29;;;;;;;;;;;;;;;17.92;58.85;101424.41;5024103;28;1731;-34
2022/01/23 00:31:25;;;;;;;;;;;;;;;17.92;58.92;101428.91;5030655;28;906;-33
2022/01/23 00:33:54;;;;;;;;;;;;;;;17.85;58.69;101423.16;5029998;28;1790;-34
2022/01/23 00:36:20;;;;;;;;;;;;;;;17.84;58.88;101419.59;5025131;28;1976;-33
2022/01/23 00:38:48;;;;;;;;;;;;;;;17.80;58.94;101420.75;5027350;28;1731;-33
2022/01/23 00:41:15;;;;;;;;;;;;;;;17.82;58.90;101423.31;5023829;28;1938;-33
2022/01/23 00:43:43;;;;;;;;;;;;;;;17.80;59.03;101414.56;5023463;28;1504;-33
2022/01/23 00:46:21;;;;;;;;;;;;;;;17.79;58.77;101432.44;5020347;28;1981;-33
2022/01/23 00:49:03;;;;;;;;;;;;;;;17.81;59.06;101443.88;5029852;28;1849;-34
2022/01/23 00:51:32;;;;;;;;;;;;;;;17.74;59.07;101437.25;5025717;28;1874;-34
2022/01/23 00:54:01;;;;;;;;;;;;;;;17.76;58.77;101448.69;5024348;28;1899;-33
2022/01/23 00:56:27;;;;;;;;;;;;;;;17.69;58.57;101447.44;5023332;28;1727;-34
2022/01/23 00:58:54;;;;;;;;;;;;;;;17.66;58.67;101450.34;5022758;28;1557;-34
2022/01/23 01:01:21;;;;;;;;;;;;;;;17.60;58.80;101450.78;5028640;28;1714;-34
2022/01/23 01:03:47;;;;;;;;;;;;;;;17.57;59.13;101451.00;5030421;28;1442;-34
2022/01/23 01:06:14;;;;;;;;;;;;;;;17.57;58.65;101456.34;5025428;28;1973;-33
2022/01/23 01:08:42;;;;;;;;;;;;;;;17.56;58.67;101459.97;5025315;28;1876;-33
2022/01/23 01:11:29;;;;;;;;;;;;;;;17.53;57.95;101454.84;5028500;28;2039;-34
2022/01/23 01:14:19;;;;;;;;;;;;;;;17.47;59.19;101440.97;5022714;28;1907;-34
2022/01/23 01:16:56;;;;;;;;;;;;;;;17.46;58.62;101443.72;5015307;28;1856;-35
2022/01/23 01:30:30;;;;;;;;;;;;;;;17.41;58.70;101448.56;5025047;28;1610;-34
2022/01/23 01:33:07;;;;;;;;;;;;;;;17.42;58.46;101443.09;5028057;28;1943;-34
2022/01/23 01:35:38;;;;;;;;;;;;;;;17.46;57.88;101449.94;5026900;28;1802;-34
2022/01/23 01:38:05;;;;;;;;;;;;;;;17.44;58.84;101440.31;5024191;28;1535;-34
2022/01/23 01:40:32;;;;;;;;;;;;;;;17.44;58.89;101440.31;5023003;28;1794;-34
2022/01/23 01:43:00;;;;;;;;;;;;;;;17.41;58.78;101453.91;5024673;28;1525;-37
2022/01/23 01:45:28;;;;;;;;;;;;;;;17.42;58.54;101460.97;5027075;28;1463;-34
2022/01/23 01:47:55;;;;;;;;;;;;;;;17.31;58.68;101456.38;5027290;28;1906;-34
2022/01/23 01:50:22;;;;;;;;;;;;;;;17.30;59.08;101454.66;5025868;28;1778;-34
2022/01/23 01:52:48;;;;;;;;;;;;;;;17.30;59.04;101446.63;5023270;28;1469;-33
2022/01/23 01:55:22;;;;;;;;;;;;;;;17.32;58.99;101458.06;5026990;28;1671;-33
2022/01/23 01:57:53;;;;;;;;;;;;;;;17.34;59.52;101449.94;5028384;28;1790;-33
2022/01/23 02:00:38;;;;;;;;;;;;;;;17.33;58.92;101470.50;5032555;28;1976;-34
2022/01/23 02:03:34;;;;;;;;;;;;;;;17.45;58.45;101469.63;5035132;28;1814;-33
2022/01/23 02:08:44;;;;;;;;;;;;;;;17.48;58.44;101479.25;5028894;28;1965;-33
2022/01/23 02:11:16;;;;;;;;;;;;;;;17.44;58.32;101477.75;5034260;28;1759;-33
2022/01/23 02:13:47;;;;;;;;;;;;;;;17.46;58.68;101475.81;5029141;28;1378;-33
2022/01/23 02:25:02;;;;;;;;;;;;;;;17.39;58.44;101471.84;5029782;28;1298;-33
2022/01/23 02:52:34;;;;;;;;;;;;;;;17.34;58.14;101501.59;5026220;28;1820;-34
2022/01/23 02:55:12;;;;;;;;;;;;;;;17.33;58.36;101507.91;5030604;28;1495;-33
2022/01/23 02:57:51;;;;;;;;;;;;;;;17.27;58.69;101503.00;5030956;28;1562;-33
2022/01/23 03:00:20;;;;;;;;;;;;;;;17.26;57.87;101495.94;5042523;23;3658;-56
2022/01/23 03:02:50;;;;;;;;;;;;;;;17.18;58.49;101508.97;5059589;28;1762;-57
2022/01/23 03:05:32;;;;;;;;;;;;;;;17.15;58.00;101503.81;5060902;28;1505;-68
2022/01/23 03:08:04;;;;;;;;;;;;;;;17.29;57.96;101503.75;5068496;28;1978;-68
2022/01/23 03:10:37;;;;;;;;;;;;;;;17.34;57.65;101514.13;5061566;28;1705;-68
2022/01/23 03:16:16;;;;;;;;;;;;;;;17.84;56.30;101523.94;5064846;28;1736;-56
2022/01/23 03:24:38;;;;;;;;;;;;;;;18.32;54.85;101519.66;5063224;28;1621;-67
2022/01/23 03:27:27;;;;;;;;;;;;;;;18.36;54.97;101523.81;5052786;28;1917;-68
2022/01/23 03:29:57;;;;;;;;;;;;;;;18.36;55.21;101529.16;5059230;28;1632;-56
2022/01/23 03:32:29;;;;;;;;;;;;;;;18.27;55.08;101528.88;5056718;28;1497;-67
2022/01/23 03:34:56;;;;;;;;;;;;;;;18.21;54.94;101526.66;5063690;28;1348;-56
2022/01/23 03:37:22;;;;;;;;;;;;;;;18.08;55.09;101517.78;5066002;28;1271;-58
2022/01/23 03:39:49;;;;;;;;;;;;;;;18.00;55.49;101517.50;5064549;28;1398;-68
2022/01/23 03:42:17;;;;;;;;;;;;;;;17.89;55.36;101505.75;5065882;28;1320;-57
2022/01/23 03:44:57;;;;;;;;;;;;;;;17.86;55.67;101526.53;5053517;28;1515;-69
2022/01/23 03:47:35;;;;;;;;;;;;;;;17.83;55.63;101522.25;5052944;28;2012;-57
2022/01/23 03:50:01;;;;;;;;;;;;;;;17.72;55.69;101511.41;5064360;28;1177;-68
2022/01/23 03:52:27;;;;;;;;;;;;;;;17.68;55.73;101508.09;5066636;28;1369;-68
2022/01/23 03:54:54;;;;;;;;;;;;;;;17.64;55.93;101509.28;5057066;28;1412;-57
2022/01/23 03:57:22;;;;;;;;;;;;;;;17.61;55.42;101511.34;5065505;28;1080;-69
2022/01/23 03:59:49;;;;;;;;;;;;;;;17.61;56.00;101514.00;5068005;28;1031;-70
2022/01/23 04:02:16;;;;;;;;;;;;;;;17.62;55.93;101518.38;5057398;28;1681;-57
2022/01/23 04:04:43;;;;;;;;;;;;;;;17.58;56.16;101512.38;5060303;28;1266;-67
2022/01/23 04:07:11;;;;;;;;;;;;;;;17.52;55.59;101511.97;5066288;28;1975;-57
2022/01/23 04:09:38;;;;;;;;;;;;;;;17.56;55.91;101513.47;5053270;28;1265;-68
2022/01/23 04:12:06;;;;;;;;;;;;;;;17.52;56.16;101511.97;5063112;28;1713;-57
2022/01/23 04:14:36;;;;;;;;;;;;;;;17.50;56.32;101517.41;5056245;28;1500;-68
2022/01/23 04:19:58;;;;;;;;;;;;;;;17.38;57.01;101503.09;5058895;28;1467;-57
2022/01/23 04:33:42;;;;;;;;;;;;;;;17.17;56.88;101531.28;5060299;28;1632;-68
2022/01/23 05:00:51;;;;;;;;;;;;;;;16.94;57.24;101549.75;5048538;28;1335;-57
2022/01/23 05:06:03;;;;;;;;;;;;;;;16.92;57.91;101556.16;5054462;28;1367;-57
2022/01/23 05:08:33;;;;;;;;;;;;;;;16.90;58.12;101553.59;5050079;28;1913;-68
2022/01/23 05:11:00;;;;;;;;;;;;;;;16.88;57.60;101563.53;5057316;28;1226;-57
2022/01/23 05:13:26;;;;;;;;;;;;;;;16.84;57.81;101570.88;5059047;28;1161;-69
2022/01/23 05:15:53;;;;;;;;;;;;;;;16.82;57.71;101567.44;5060887;28;1228;-57
2022/01/23 05:18:22;;;;;;;;;;;;;;;16.78;58.01;101557.91;5055013;28;1430;-57
2022/01/23 05:20:55;;;;;;;;;;;;;;;16.76;57.20;101567.81;5051941;28;1339;-68
2022/01/23 05:23:22;;;;;;;;;;;;;;;16.70;58.27;101569.09;5052986;28;1436;-57
2022/01/23 05:25:48;;;;;;;;;;;;;;;16.70;57.09;101579.78;5059394;28;1499;-58
2022/01/23 05:28:15;;;;;;;;;;;;;;;16.70;57.31;101578.91;5052300;28;1975;-57
2022/01/23 05:30:41;;;;;;;;;;;;;;;16.67;57.83;101590.66;5057374;28;1340;-57
2022/01/23 05:33:09;;;;;;;;;;;;;;;16.69;57.82;101588.75;5048135;28;1354;-58
2022/01/23 05:35:37;;;;;;;;;;;;;;;16.65;57.76;101586.34;5049510;28;1380;-58
2022/01/23 05:38:04;;;;;;;;;;;;;;;16.66;57.53;101577.41;5059031;28;1328;-70
2022/01/23 05:40:30;;;;;;;;;;;;;;;16.73;57.24;101599.22;5050705;28;1343;-58
2022/01/23 05:42:57;;;;;;;;;;;;;;;16.68;58.30;101591.53;5056356;28;1416;-68
2022/01/23 05:45:23;;;;;;;;;;;;;;;16.67;57.28;101587.13;5047878;28;1873;-69
2022/01/23 05:47:50;;;;;;;;;;;;;;;16.63;57.77;101583.81;5045851;28;2001;-59
2022/01/23 05:50:17;;;;;;;;;;;;;;;16.68;57.63;101572.81;5056889;28;1482;-57
2022/01/23 05:52:45;;;;;;;;;;;;;;;16.62;57.51;101584.75;5062115;28;1312;-69
2022/01/23 05:55:12;;;;;;;;;;;;;;;16.61;57.10;101576.84;5051909;28;1407;-57
2022/01/23 05:57:38;;;;;;;;;;;;;;;16.61;57.27;101580.38;5059683;28;1172;-56
2022/01/23 06:00:06;;;;;;;;;;;;;;;16.60;57.42;101589.34;5062249;28;1395;-69
2022/01/23 06:02:32;;;;;;;;;;;;;;;16.61;58.37;101601.75;5049030;28;1345;-68
2022/01/23 06:04:59;;;;;;;;;;;;;;;16.53;58.03;101604.03;5047678;28;1370;-68
2022/01/23 06:07:25;;;;;;;;;;;;;;;16.58;57.11;101598.41;5048033;28;1906;-68
2022/01/23 06:09:53;;;;;;;;;;;;;;;16.50;57.20;101593.56;5056399;28;1705;-68
2022/01/23 06:12:20;;;;;;;;;;;;;;;16.52;57.99;101620.19;5055738;28;1533;-69
2022/01/23 06:14:46;;;;;;;;;;;;;;;16.51;58.21;101616.63;5054658;28;1321;-56
2022/01/23 06:17:13;;;;;;;;;;;;;;;16.55;57.00;101612.81;5048138;28;1354;-57
2022/01/23 06:19:40;;;;;;;;;;;;;;;16.53;57.56;101621.88;5050874;28;1360;-64
2022/01/23 06:22:07;;;;;;;;;;;;;;;16.61;55.90;101616.91;5046918;28;1391;-67
2022/01/23 06:24:33;;;;;;;;;;;;;;;16.65;56.74;101621.97;5046251;28;1267;-57
2022/01/23 06:27:02;;;;;;;;;;;;;;;16.55;56.23;101633.31;5051426;28;1756;-57
2022/01/23 06:29:30;;;;;;;;;;;;;;;16.49;55.20;101630.09;5047104;28;1918;-57
2022/01/23 06:31:58;;;;;;;;;;;;;;;16.46;53.90;101626.75;5040388;28;1864;-70
2022/01/23 06:34:25;;;;;;;;;;;;;;;16.46;54.30;101624.09;4345441;28;10000780;-71
2022/01/23 06:36:52;;;;;;;;;;;;;;;16.46;54.17;101616.09;5045593;28;1882;-70
2022/01/23 06:39:19;;;;;;;;;;;;;;;16.44;57.22;101612.66;5043663;28;1527;-57
2022/01/23 06:41:46;;;;;;;;;;;;;;;16.41;54.98;101605.72;5044039;28;1482;-71
2022/01/23 06:44:14;;;;;;;;;;;;;;;16.46;55.75;101618.75;5053357;28;1464;-70
2022/01/23 06:46:40;;;;;;;;;;;;;;;16.52;54.77;101618.34;5045747;28;1846;-57
2022/01/23 06:49:07;;;;;;;;;;;;;;;16.53;54.57;101617.38;5052219;28;1910;-70
2022/01/23 06:51:34;;;;;;;;;;;;;;;16.50;56.47;101615.78;5050435;28;1592;-58
2022/01/23 06:54:01;;;;;;;;;;;;;;;16.46;55.63;101632.09;5054583;28;1472;-71
2022/01/23 06:56:27;;;;;;;;;;;;;;;16.42;54.09;101633.25;5055345;28;1461;-58
2022/01/23 06:58:54;;;;;;;;;;;;;;;16.42;55.04;101617.22;5048762;28;1421;-57
2022/01/23 07:01:22;;;;;;;;;;;;;;;16.48;55.73;101628.38;5046316;28;1351;-58
2022/01/23 07:03:48;;;;;;;;;;;;;;;16.60;57.66;101631.22;5049215;28;1571;-58
2022/01/23 07:06:15;;;;;;;;;;;;;;;16.66;57.86;101625.47;5049170;28;1709;-56
2022/01/23 07:08:41;;;;;;;;;;;;;;;16.56;55.47;101619.88;5049007;28;1910;-64
2022/01/23 07:11:08;;;;;;;;;;;;;;;16.64;57.47;101624.72;5049397;28;1372;-56
2022/01/23 07:13:34;;;;;;;;;;;;;;;16.68;58.75;101629.75;5051917;28;1484;-56
2022/01/23 07:16:02;;;;;;;;;;;;;;;16.75;58.45;101624.00;5049667;28;1155;-62
2022/01/23 07:18:30;;;;;;;;;;;;;;;16.91;57.59;101619.44;5047296;28;1472;-59
2022/01/23 07:20:56;;;;;;;;;;;;;;;16.93;57.73;101605.94;5046211;28;1543;-55
2022/01/23 07:23:23;;;;;;;;;;;;;;;16.84;58.36;101618.97;5046738;28;1332;-53
2022/01/23 07:25:50;;;;;;;;;;;;;;;16.86;58.52;101610.84;5046664;28;1452;-71
2022/01/23 07:28:21;;;;;;;;;;;;;;;16.74;59.01;101611.63;5047481;28;1910;-72
2022/01/23 07:30:51;;;;;;;;;;;;;;;16.66;60.82;101604.13;5048430;28;1460;-67
2022/01/23 07:33:18;;;;;;;;;;;;;;;16.79;59.36;101609.50;5050926;28;1379;-61
2022/01/23 07:35:46;;;;;;;;;;;;;;;16.78;59.32;101613.16;5049037;28;2356;-63
2022/01/23 07:38:16;;;;;;;;;;;;;;;16.73;59.25;101609.91;5049993;28;1511;-56
2022/01/23 07:40:43;;;;;;;;;;;;;;;16.70;59.31;101621.66;5048410;28;1135;-64
2022/01/23 07:43:10;;;;;;;;;;;;;;;16.76;58.77;101609.72;5047980;28;1424;-69
2022/01/23 07:45:37;;;;;;;;;;;;;;;16.92;58.45;101599.75;5047441;28;1458;-67
2022/01/23 07:48:04;;;;;;;;;;;;;;;17.07;58.86;101600.56;5045070;28;1914;-56
2022/01/23 07:50:30;;;;;;;;;;;;;;;17.27;57.90;101621.47;5049215;28;1423;-56
2022/01/23 07:52:58;;;;;;;;;;;;;;;17.44;57.28;101614.97;5047613;28;1364;-56
2022/01/23 07:55:25;;;;;;;;;;;;;;;17.56;56.94;101620.44;5050098;28;1417;-56
2022/01/23 07:57:52;;;;;;;;;;;;;;;17.60;57.51;101622.78;5051007;28;1407;-56
2022/01/23 08:00:19;;;;;;;;;;;;;;;17.86;55.79;101623.69;5047791;28;1364;-65
2022/01/23 08:02:46;;;;;;;;;;;;;;;17.94;56.03;101616.97;5051557;28;1420;-59
2022/01/23 08:05:13;;;;;;;;;;;;;;;17.90;57.17;101616.31;5053176;28;1424;-59
2022/01/23 08:07:39;;;;;;;;;;;;;;;17.84;57.90;101617.59;5051977;28;1368;-59
2022/01/23 08:10:08;;;;;;;;;;;;;;;17.96;56.73;101613.19;5050263;28;1909;-63
2022/01/23 08:12:35;;;;;;;;;;;;;;;18.08;56.52;101608.81;5055491;28;1391;-61
2022/01/23 08:15:04;;;;;;;;;;;;;;;18.08;56.99;101611.47;5050674;28;1534;-55
2022/01/23 08:17:30;;;;;;;;;;;;;;;18.13;56.51;101609.34;5053257;28;1325;-63
2022/01/23 08:19:59;;;;;;;;;;;;;;;18.24;55.99;101606.75;5051776;28;1352;-56
2022/01/23 08:22:26;;;;;;;;;;;;;;;18.27;56.57;101603.00;5050178;28;1360;-60
2022/01/23 08:24:54;;;;;;;;;;;;;;;18.08;57.05;101600.78;5050052;28;1993;-56
2022/01/23 08:27:22;;;;;;;;;;;;;;;18.19;56.98;101608.91;5051566;28;1878;-52
2022/01/23 08:29:48;;;;;;;;;;;;;;;18.54;55.70;101608.16;5050368;28;1975;-52
2022/01/23 08:32:15;;;;;;;;;;;;;;;18.77;54.84;101609.16;5047933;28;1574;-52
2022/01/23 08:34:41;;;;;;;;;;;;;;;18.93;54.76;101616.94;5051379;28;1263;-48
2022/01/23 08:37:09;;;;;;;;;;;;;;;18.70;55.50;101610.56;5048050;28;1499;-62
2022/01/23 08:39:36;;;;;;;;;;;;;;;18.77;54.81;101611.00;5056726;28;1179;-60
2022/01/23 08:42:04;;;;;;;;;;;;;;;18.79;55.60;101615.28;5051703;28;1654;-57
2022/01/23 08:44:33;;;;;;;;;;;;;;;18.86;54.90;101610.31;5052886;28;1376;-68
2022/01/23 08:47:00;;;;;;;;;;;;;;;18.91;54.87;101605.50;5048584;28;1419;-56
2022/01/23 08:49:27;;;;;;;;;;;;;;;18.91;54.83;101610.00;5050009;28;1975;-65
2022/01/23 08:51:55;;;;;;;;;;;;;;;18.80;55.50;101603.63;5051794;28;1268;-56
2022/01/23 08:54:21;;;;;;;;;;;;;;;18.74;55.41;101611.19;5047921;28;1431;-54
2022/01/23 08:56:48;;;;;;;;;;;;;;;18.69;55.11;101606.19;5050105;28;1524;-68
2022/01/23 08:59:15;;;;;;;;;;;;;;;18.77;55.68;101611.00;5052749;28;1411;-70
2022/01/23 09:01:43;;;;;;;;;;;;;;;18.80;54.68;101597.38;5046952;28;1488;-67
2022/01/23 09:04:12;;;;;;;;;;;;;;;18.79;54.72;101612.63;5053290;28;1152;-67
2022/01/23 09:06:39;;;;;;;;;;;;;;;18.72;55.04;101605.09;5042632;28;1537;-64
2022/01/23 09:09:07;;;;;;;;;;;;;;;18.67;55.60;101590.22;5046528;28;1902;-62
2022/01/23 09:11:41;;;;;;;;;;;;;;;18.66;55.25;101579.63;5042343;28;1270;-60
2022/01/23 09:14:09;;;;;;;;;;;;;;;18.79;54.67;101579.59;5053548;28;1348;-63
2022/01/23 09:16:38;;;;;;;;;;;;;;;18.83;55.13;101575.72;5048058;28;1408;-53
2022/01/23 09:19:06;;;;;;;;;;;;;;;18.76;55.91;101572.63;5060428;28;1796;-55
2022/01/23 09:21:33;;;;;;;;;;;;;;;18.66;56.11;101572.47;5059495;28;1696;-72
2022/01/23 09:24:00;;;;;;;;;;;;;;;18.57;56.11;101572.28;5050481;28;1521;-56
2022/01/23 09:26:27;;;;;;;;;;;;;;;18.46;56.42;101567.69;5056405;28;1347;-55
2022/01/23 09:28:55;;;;;;;;;;;;;;;18.40;55.88;101577.06;5057920;28;1971;-56
2022/01/23 09:31:32;;;;;;;;;;;;;;;18.37;55.76;101571.06;5048921;28;1292;-60
2022/01/23 09:33:59;;;;;;;;;;;;;;;18.34;56.01;101560.56;5059979;28;1517;-59
2022/01/23 09:36:28;;;;;;;;;;;;;;;18.28;55.61;101565.41;5054378;28;1783;-57
2022/01/23 09:38:55;;;;;;;;;;;;;;;18.25;55.65;101560.28;5050093;28;1526;-57
2022/01/23 09:41:22;;;;;;;;;;;;;;;18.22;55.93;101556.94;5056324;28;1413;-63
2022/01/23 09:43:50;;;;;;;;;;;;;;;18.24;56.07;101558.56;5058975;28;1407;-54
2022/01/23 09:46:16;;;;;;;;;;;;;;;18.15;55.89;101558.38;5044100;28;1262;-59
2022/01/23 09:48:44;;;;;;;;;;;;;;;18.05;55.92;101550.16;5048026;28;1910;-57
2022/01/23 09:51:11;;;;;;;;;;;;;;;18.02;55.88;101542.31;5057458;28;1400;-66
2022/01/23 09:53:39;;;;;;;;;;;;;;;17.95;56.16;101533.91;5057667;28;1363;-66
2022/01/23 09:56:06;;;;;;;;;;;;;;;17.95;55.47;101543.75;5056414;28;1525;-56
2022/01/23 09:58:33;;;;;;;;;;;;;;;17.92;56.05;101538.59;5053176;28;1338;-56
2022/01/23 10:01:00;;;;;;;;;;;;;;;17.96;56.32;101532.06;5048769;28;1350;-56
2022/01/23 10:03:26;;;;;;;;;;;;;;;17.92;56.45;101528.75;5049355;28;1596;-54
2022/01/23 10:05:54;;;;;;;;;;;;;;;18.05;55.74;101531.41;5048124;28;1619;-58
2022/01/23 10:08:20;;;;;;;;;;;;;;;18.05;55.68;101528.75;5051287;28;1351;-71
2022/01/23 10:10:51;;;;;;;;;;;;;;;18.21;55.99;101529.34;5046114;28;1906;-59
2022/01/23 10:13:20;;;;;;;;;;;;;;;18.28;56.48;101527.94;5046109;28;1591;-58
2022/01/23 10:15:47;;;;;;;;;;;;;;;18.35;56.20;101528.31;5041607;28;1192;-58
2022/01/23 10:18:13;;;;;;;;;;;;;;;18.39;56.28;101534.31;5048842;28;1333;-56
2022/01/23 10:20:40;;;;;;;;;;;;;;;18.25;58.15;101524.63;5048203;28;1356;-61
2022/01/23 10:23:06;;;;;;;;;;;;;;;18.27;57.54;101526.22;5050816;28;1428;-64
2022/01/23 10:25:33;;;;;;;;;;;;;;;18.25;57.32;101522.78;5050199;28;1361;-61
2022/01/23 10:28:04;;;;;;;;;;;;;;;18.18;56.53;101521.50;5056889;28;1304;-66
2022/01/23 10:30:32;;;;;;;;;;;;;;;18.07;56.51;101526.81;5043558;28;1976;-66
2022/01/23 10:33:04;;;;;;;;;;;;;;;17.95;56.18;101531.22;5045224;28;1360;-55
2022/01/23 10:35:31;;;;;;;;;;;;;;;17.91;55.62;101523.53;5051879;28;1864;-66
2022/01/23 10:38:04;;;;;;;;;;;;;;;17.97;55.60;101531.13;5052343;28;1348;-64
2022/01/23 10:40:35;;;;;;;;;;;;;;;17.96;55.23;101516.00;5047151;28;1359;-65
2022/01/23 10:48:45;;;;;;;;;;;;;;;17.83;54.86;101511.53;5054887;28;1419;-64
2022/01/23 10:51:16;;;;;;;;;;;;;;;17.81;55.87;101518.78;5051349;28;1906;-65
2022/01/23 10:53:59;;;;;;;;;;;;;;;17.85;55.55;101503.41;5057924;28;1513;-66
2022/01/23 10:56:26;;;;;;;;;;;;;;;17.91;55.65;101515.50;5049143;28;1391;-57
2022/01/23 10:59:02;;;;;;;;;;;;;;;17.91;55.65;101512.84;5057400;28;1365;-58
2022/01/23 11:01:29;;;;;;;;;;;;;;;17.90;56.09;101509.28;5054369;28;1384;-57
2022/01/23 11:04:19;;;;;;;;;;;;;;;17.92;56.08;101514.53;5050018;28;1681;-65
2022/01/23 11:06:53;;;;;;;;;;;;;;;17.95;56.29;101500.94;5026432;28;1525;-65
2022/01/23 11:09:20;;;;;;;;;;;;;;;17.96;55.99;101498.13;5056653;28;1898;-56
2022/01/23 11:11:49;;;;;;;;;;;;;;;17.98;56.27;101498.88;5054852;28;1580;-57
2022/01/23 11:20:01;;;;;;;;;;;;;;;18.02;56.10;101494.16;5040640;28;2469;-57
2022/01/23 11:22:29;;;;;;;;;;;;;;;18.26;54.44;101487.03;5056888;28;1360;-69
2022/01/23 11:25:00;;;;;;;;;;;;;;;18.44;55.10;101475.91;5058798;28;1356;-66
2022/01/23 11:27:31;;;;;;;;;;;;;;;18.65;54.49;101476.97;5056811;28;1354;-65
2022/01/23 11:30:00;;;;;;;;;;;;;;;18.84;53.79;101472.91;5051555;28;1906;-70
2022/01/23 11:32:30;;;;;;;;;;;;;;;19.22;52.62;101479.84;5059130;28;1497;-71
2022/01/23 11:35:03;;;;;;;;;;;;;;;19.27;53.49;101473.13;5057072;28;1391;-62
2022/01/23 11:37:29;;;;;;;;;;;;;;;19.25;53.54;101471.56;5052872;28;1514;-62
2022/01/23 11:40:01;;;;;;;;;;;;;;;19.29;54.28;101475.69;5054666;28;1379;-67
2022/01/23 11:51:03;;;;;;;;;;;;;;;19.36;52.69;101474.25;5047131;28;1963;-60
2022/01/23 11:56:39;;;;;;;;;;;;;;;19.41;53.13;101473.88;5046772;28;1328;-63
2022/01/23 11:59:18;;;;;;;;;;;;;;;19.42;53.40;101475.59;5049267;28;1300;-66
2022/01/23 12:01:47;;;;;;;;;;;;;;;19.42;53.92;101455.00;5045506;28;1471;-64
2022/01/23 12:04:20;;;;;;;;;;;;;;;19.46;53.98;101471.72;5047936;28;1490;-64
2022/01/23 12:07:01;;;;;;;;;;;;;;;19.45;53.70;101459.25;5046484;28;1100;-66
2022/01/23 12:09:28;;;;;;;;;;;;;;;19.36;54.33;101455.47;5052365;28;1910;-65
2022/01/23 12:12:04;;;;;;;;;;;;;;;19.34;53.10;101462.78;5045455;28;1357;-65
2022/01/23 12:17:39;;;;;;;;;;;;;;;19.19;53.43;101450.59;5047812;28;1388;-64
2022/01/23 12:20:06;;;;;;;;;;;;;;;19.14;54.14;101456.31;5053142;28;1380;-67
2022/01/23 12:22:41;;;;;;;;;;;;;;;19.14;53.65;101460.81;5055804;28;1245;-63
2022/01/23 12:25:12;;;;;;;;;;;;;;;19.07;54.23;101455.91;5045442;28;1446;-64
2022/01/23 12:27:39;;;;;;;;;;;;;;;19.13;52.67;101461.78;5049954;28;1434;-64
2022/01/23 12:30:30;;;;;;;;;;;;;;;19.08;53.81;101460.31;5044009;28;1902;-65
2022/01/23 12:33:12;;;;;;;;;;;;;;;19.03;54.41;101464.31;5042498;28;1407;-68
2022/01/23 12:35:39;;;;;;;;;;;;;;;19.01;54.59;101463.59;5043202;28;1258;-69
2022/01/23 12:38:07;;;;;;;;;;;;;;;18.99;54.62;101460.19;5045368;28;1391;-69
2022/01/23 12:40:34;;;;;;;;;;;;;;;18.91;54.58;101446.53;5043878;28;1287;-69
2022/01/23 12:43:04;;;;;;;;;;;;;;;18.87;54.26;101457.47;5045129;28;1359;-71
2022/01/23 12:45:44;;;;;;;;;;;;;;;18.81;53.78;101443.69;5047138;28;1135;-69
2022/01/23 12:48:29;;;;;;;;;;;;;;;18.87;54.88;101433.34;5051253;28;1353;-68
2022/01/23 12:50:59;;;;;;;;;;;;;;;18.87;54.74;101445.91;5045349;28;1914;-59
2022/01/23 12:53:35;;;;;;;;;;;;;;;18.87;54.72;101448.56;5052061;28;1442;-65
2022/01/23 12:56:02;;;;;;;;;;;;;;;18.92;55.21;101438.38;5050116;28;1316;-66
2022/01/23 12:58:31;;;;;;;;;;;;;;;18.87;55.13;101437.84;5047444;28;1446;-69
2022/01/23 13:00:59;;;;;;;;;;;;;;;18.83;55.43;101429.19;5047950;28;1309;-65
2022/01/23 13:03:26;;;;;;;;;;;;;;;18.74;56.08;101435.25;5048795;28;1469;-69
2022/01/23 13:05:52;;;;;;;;;;;;;;;18.73;54.72;101430.00;5047539;28;1341;-65
2022/01/23 13:08:24;;;;;;;;;;;;;;;18.71;55.30;101445.34;5040649;28;1352;-64
2022/01/23 13:11:08;;;;;;;;;;;;;;;18.69;55.01;101435.56;5049002;28;1921;-64
2022/01/23 13:13:38;;;;;;;;;;;;;;;18.82;54.63;101434.66;5049212;28;1383;-69
2022/01/23 13:16:21;;;;;;;;;;;;;;;18.72;53.40;101439.88;5043730;28;1324;-69
2022/01/23 13:19:17;;;;;;;;;;;;;;;18.82;54.95;101442.69;5049308;28;1383;-70
2022/01/23 13:27:58;;;;;;;;;;;;;;;18.70;55.60;101439.09;5047615;28;1205;-67
2022/01/23 13:30:17;;;;;;;;;;;;;;;18.73;55.87;101452.28;5046961;28;1997;-69
2022/01/23 13:32:46;;;;;;;;;;;;;;;18.79;56.08;101445.59;5044292;28;1285;-72
2022/01/23 13:35:15;;;;;;;;;;;;;;;18.73;56.07;101446.91;5047181;28;1246;-66
2022/01/23 13:37:43;;;;;;;;;;;;;;;18.76;55.83;101451.19;5052188;28;1325;-59
2022/01/23 13:40:14;;;;;;;;;;;;;;;18.72;55.56;101445.22;5049891;28;1491;-61
2022/01/23 13:42:51;;;;;;;;;;;;;;;18.64;56.42;101448.50;5049673;28;1373;-62
2022/01/23 13:48:28;;;;;;;;;;;;;;;18.61;56.85;101437.16;5046071;28;1297;-62
2022/01/23 13:54:14;;;;;;;;;;;;;;;18.49;56.21;101436.25;5056467;28;1467;-58
2022/01/23 13:59:30;;;;;;;;;;;;;;;18.44;54.84;101447.31;5050712;28;1474;-58
2022/01/23 14:02:09;;;;;;;;;;;;;;;18.34;54.62;101450.78;5050025;28;1377;-68
2022/01/23 14:04:38;;;;;;;;;;;;;;;18.25;54.91;101437.13;5052661;28;1317;-58
2022/01/23 14:07:04;;;;;;;;;;;;;;;18.25;55.11;101442.47;5050797;28;1261;-60
2022/01/23 14:09:36;;;;;;;;;;;;;;;18.29;54.08;101437.75;5049434;28;1317;-62
2022/01/23 14:12:08;;;;;;;;;;;;;;;18.34;55.01;101438.25;5055958;28;1981;-60
2022/01/23 14:14:35;;;;;;;;;;;;;;;18.39;55.89;101448.63;5049518;28;1387;-65
2022/01/23 14:17:11;;;;;;;;;;;;;;;18.49;55.76;101450.47;5049799;28;1332;-59
2022/01/23 14:19:38;;;;;;;;;;;;;;;18.61;55.88;101447.84;5046662;28;1359;-70
2022/01/23 14:22:04;;;;;;;;;;;;;;;18.64;56.42;101458.31;5060036;28;1407;-60
2022/01/23 14:24:32;;;;;;;;;;;;;;;18.66;56.33;101464.41;5059949;28;1355;-69
2022/01/23 14:27:00;;;;;;;;;;;;;;;18.79;56.09;101467.91;5054927;28;1693;-66
2022/01/23 14:29:28;;;;;;;;;;;;;;;18.85;56.53;101455.88;5053179;28;1332;-67
2022/01/23 14:32:09;;;;;;;;;;;;;;;18.86;57.86;101465.59;5049215;28;1914;-58
2022/01/23 14:34:36;;;;;;;;;;;;;;;18.75;59.96;101463.72;5052356;28;1335;-60
2022/01/23 14:37:06;;;;;;;;;;;;;;;18.80;58.67;101463.41;5050237;28;1333;-68
2022/01/23 14:39:33;;;;;;;;;;;;;;;18.78;59.53;101473.34;5053594;28;1240;-60
2022/01/23 14:42:10;;;;;;;;;;;;;;;18.74;58.54;101469.19;5054489;28;1569;-60
2022/01/23 14:44:38;;;;;;;;;;;;;;;18.69;59.34;101465.06;5047941;28;1504;-68
2022/01/23 14:47:04;;;;;;;;;;;;;;;18.72;58.23;101476.50;5052412;28;2005;-59
2022/01/23 14:49:32;;;;;;;;;;;;;;;18.62;59.40;101477.22;5053152;28;1367;-67
2022/01/23 14:52:00;;;;;;;;;;;;;;;18.57;60.26;101479.38;5053932;28;1977;-59
2022/01/23 14:54:30;;;;;;;;;;;;;;;18.52;58.60;101476.19;5050968;28;1380;-59
2022/01/23 14:56:58;;;;;;;;;;;;;;;18.53;59.94;101487.75;5060594;28;1572;-60
2022/01/23 14:59:24;;;;;;;;;;;;;;;18.49;59.14;101492.50;5064804;28;1460;-59
2022/01/23 15:01:54;;;;;;;;;;;;;;;18.50;59.49;101488.81;5056227;28;1340;-67
2022/01/23 15:04:22;;;;;;;;;;;;;;;18.52;59.05;101486.88;5064870;28;1184;-67
2022/01/23 15:06:51;;;;;;;;;;;;;;;18.54;58.48;101490.31;5058731;28;1148;-67
2022/01/23 15:09:19;;;;;;;;;;;;;;;18.51;59.35;101493.22;5050160;28;1492;-67
2022/01/23 15:11:45;;;;;;;;;;;;;;;18.55;58.72;101507.25;5060461;28;1898;-67
2022/01/23 15:14:12;;;;;;;;;;;;;;;18.57;58.91;101506.16;5058562;28;1594;-67
2022/01/23 15:16:39;;;;;;;;;;;;;;;18.55;58.87;101505.41;5050508;28;1366;-67
2022/01/23 15:19:08;;;;;;;;;;;;;;;18.58;58.45;101509.69;5060204;28;1455;-60
2022/01/23 15:21:34;;;;;;;;;;;;;;;18.60;58.19;101510.44;5059674;28;1712;-59
2022/01/23 15:24:01;;;;;;;;;;;;;;;18.62;57.39;101508.47;5054040;28;1532;-65